createdAt,value
2022-11-09T00:00:50.707Z,41.50
2022-11-09T00:03:22.333Z,44.90
2022-11-09T00:06:03.015Z,40.50
2022-11-09T00:08:34.647Z,42.10
2022-11-09T00:13:40.532Z,36.50
2022-11-09T00:16:13.408Z,44.00
2022-11-09T00:18:47.792Z,40.80
2022-11-09T00:21:20.971Z,44.50
2022-11-09T00:23:52.468Z,40.10
2022-11-09T00:26:24.137Z,45.00
2022-11-09T00:31:25.760Z,41.90
2022-11-09T00:33:58.256Z,37.40
2022-11-09T00:36:30.155Z,37.30
2022-11-09T00:39:01.904Z,33.80
2022-11-09T00:41:33.604Z,33.50
2022-11-09T00:44:06.221Z,31.20
2022-11-09T00:46:37.984Z,33.10
2022-11-09T00:49:10.259Z,32.10
2022-11-09T00:51:41.905Z,34.70
2022-11-09T00:54:14.397Z,38.20
2022-11-09T00:56:46.007Z,57.00
2022-11-09T01:01:48.164Z,55.50
2022-11-09T01:04:19.718Z,55.40
2022-11-09T01:09:21.542Z,58.90
2022-11-09T01:14:26.794Z,60.80
2022-11-09T01:16:58.624Z,63.40
2022-11-09T01:19:30.976Z,63.60
2022-11-09T01:22:02.474Z,71.10
2022-11-09T01:24:33.902Z,72.00
2022-11-09T01:27:05.725Z,73.70
2022-11-09T01:29:37.227Z,73.80
2022-11-09T01:34:38.533Z,82.50
2022-11-09T01:37:09.906Z,75.90
2022-11-09T01:39:41.618Z,78.00
2022-11-09T01:44:46.752Z,75.90
2022-11-09T01:49:51.452Z,39.20
2022-11-09T01:52:24.747Z,33.40
2022-11-09T01:55:02.238Z,37.30
2022-11-09T01:57:36.042Z,34.70
2022-11-09T02:00:10.122Z,33.10
2022-11-09T02:02:49.474Z,35.40
2022-11-09T02:05:23.425Z,32.60
2022-11-09T02:07:56.727Z,30.80
2022-11-09T02:10:30.662Z,32.70
2022-11-09T02:13:04.096Z,33.90
2022-11-09T02:15:45.411Z,33.40
2022-11-09T02:18:17.584Z,36.30
2022-11-09T02:20:50.459Z,40.60
2022-11-09T02:23:22.307Z,42.00
2022-11-09T02:25:56.546Z,48.90
2022-11-09T02:28:29.112Z,45.70
2022-11-09T02:31:00.635Z,43.30
2022-11-09T02:36:03.397Z,47.60
2022-11-09T02:38:35.077Z,47.00
2022-11-09T02:41:07.068Z,51.20
2022-11-09T02:43:39.068Z,43.40
2022-11-09T02:46:10.793Z,41.80
2022-11-09T02:48:42.466Z,42.50
2022-11-09T02:53:44.122Z,37.50
2022-11-09T02:56:16.145Z,34.90
2022-11-09T02:58:47.579Z,33.70
2022-11-09T03:01:19.038Z,32.00
2022-11-09T03:06:20.372Z,28.80
2022-11-09T03:08:51.857Z,28.90
2022-11-09T03:11:23.887Z,30.30
2022-11-09T03:13:55.854Z,29.50
2022-11-09T03:16:27.421Z,29.60
2022-11-09T03:18:59.113Z,27.90
2022-11-09T03:24:00.487Z,27.10
2022-11-09T03:29:02.962Z,26.10
2022-11-09T03:31:34.854Z,27.70
2022-11-09T03:34:08.701Z,27.50
2022-11-09T03:36:40.472Z,26.30
2022-11-09T03:39:12.124Z,26.20
2022-11-09T03:44:13.687Z,28.30
2022-11-09T03:46:45.362Z,26.10
2022-11-09T03:51:47.138Z,25.40
2022-11-09T03:54:18.895Z,25.00
2022-11-09T03:56:50.350Z,26.30
2022-11-09T03:59:21.971Z,24.90
2022-11-09T04:04:23.457Z,25.40
2022-11-09T04:06:55.156Z,25.40
2022-11-09T04:09:26.966Z,24.70
2022-11-09T04:11:58.372Z,26.80
2022-11-09T04:14:29.880Z,25.60
2022-11-09T04:17:01.536Z,24.00
2022-11-09T04:22:03.264Z,37.90
2022-11-09T04:24:34.673Z,37.30
2022-11-09T04:27:06.382Z,28.90
2022-11-09T04:32:07.654Z,23.60
2022-11-09T04:37:08.801Z,21.90
2022-11-09T04:39:40.339Z,23.20
2022-11-09T04:42:11.712Z,20.70
2022-11-09T04:44:43.162Z,22.70
2022-11-09T04:47:14.521Z,22.00
2022-11-09T04:49:46.338Z,22.70
2022-11-09T04:52:17.730Z,21.30
2022-11-09T04:57:19.216Z,21.20
2022-11-09T04:59:50.920Z,21.40
2022-11-09T05:04:52.412Z,22.00
2022-11-09T05:07:24.310Z,25.10
2022-11-09T05:09:55.887Z,24.30
2022-11-09T05:14:57.515Z,24.20
2022-11-09T05:17:28.960Z,24.60
2022-11-09T05:20:00.436Z,25.80
2022-11-09T05:22:45.594Z,24.80
2022-11-09T05:25:17.434Z,23.70
2022-11-09T05:27:49.719Z,24.10
2022-11-09T05:30:21.588Z,25.20
2022-11-09T05:32:53.852Z,23.80
2022-11-09T05:35:25.377Z,22.50
2022-11-09T05:40:27.247Z,21.70
2022-11-09T05:42:58.774Z,22.70
2022-11-09T05:45:45.983Z,21.20
2022-11-09T05:48:18.944Z,23.40
2022-11-09T05:50:50.632Z,24.40
2022-11-09T05:53:31.563Z,23.70
2022-11-09T05:56:06.481Z,22.10
2022-11-09T05:58:39.153Z,25.50
2022-11-09T06:01:11.786Z,25.20
2022-11-09T06:03:44.615Z,29.00
2022-11-09T06:06:17.279Z,30.40
2022-11-09T06:08:48.663Z,32.60
2022-11-09T06:11:24.145Z,35.10
2022-11-09T06:13:56.132Z,38.80
2022-11-09T06:16:27.475Z,40.00
2022-11-09T06:18:58.975Z,45.20
2022-11-09T06:21:30.301Z,43.70
2022-11-09T06:24:01.937Z,52.80
2022-11-09T06:29:04.023Z,57.40
2022-11-09T06:34:06.188Z,59.20
2022-11-09T06:36:38.631Z,51.00
2022-11-09T06:39:11.172Z,52.70
2022-11-09T06:41:47.730Z,54.80
2022-11-09T06:44:20.917Z,50.80
2022-11-09T06:46:56.260Z,48.60
2022-11-09T06:49:33.710Z,47.80
2022-11-09T06:52:07.708Z,45.90
2022-11-09T06:54:40.336Z,44.60
2022-11-09T06:57:11.983Z,43.60
2022-11-09T07:02:13.776Z,36.50
2022-11-09T07:04:45.157Z,48.70
2022-11-09T07:07:16.622Z,43.20
2022-11-09T07:09:48.078Z,27.00
2022-11-09T07:12:19.700Z,23.30
2022-11-09T07:14:51.452Z,21.20
2022-11-09T07:19:52.623Z,24.80
2022-11-09T07:22:24.232Z,23.50
2022-11-09T07:27:28.169Z,25.80
2022-11-09T07:30:00.056Z,26.50
2022-11-09T07:33:01.884Z,22.90
2022-11-09T07:35:22.898Z,23.90
2022-11-09T07:40:24.360Z,27.70
2022-11-09T07:42:55.731Z,27.90
2022-11-09T07:45:27.340Z,26.20
2022-11-09T07:50:32.240Z,39.50
2022-11-09T07:53:04.183Z,35.30
2022-11-09T07:55:35.827Z,39.70
2022-11-09T07:58:11.045Z,51.50
2022-11-09T08:00:42.960Z,48.50
2022-11-09T08:03:14.871Z,44.40
2022-11-09T08:05:46.847Z,45.90
2022-11-09T08:08:18.733Z,45.00
2022-11-09T08:10:53.344Z,44.10
2022-11-09T08:13:24.843Z,51.60
2022-11-09T08:18:26.789Z,49.40
2022-11-09T08:20:58.656Z,49.60
2022-11-09T08:23:30.946Z,50.60
2022-11-09T08:26:05.188Z,50.30
2022-11-09T08:28:36.948Z,50.20
2022-11-09T08:31:10.791Z,49.40
2022-11-09T08:33:43.250Z,51.80
2022-11-09T08:36:16.218Z,50.70
2022-11-09T08:38:48.020Z,52.90
2022-11-09T08:41:20.086Z,54.10
2022-11-09T08:43:52.057Z,53.60
2022-11-09T08:46:24.241Z,55.70
2022-11-09T08:48:56.071Z,57.40
2022-11-09T08:51:28.202Z,60.80
2022-11-09T08:56:30.128Z,62.90
2022-11-09T09:01:31.746Z,62.70
2022-11-09T09:04:03.121Z,64.70
2022-11-09T09:06:34.811Z,67.10
2022-11-09T09:11:36.298Z,66.50
2022-11-09T09:16:37.905Z,75.30
2022-11-09T09:21:39.781Z,77.00
2022-11-09T09:26:41.871Z,75.00
2022-11-09T09:29:13.634Z,78.40
2022-11-09T09:34:15.114Z,74.40
2022-11-09T09:39:20.183Z,75.50
2022-11-09T09:44:26.686Z,71.40
2022-11-09T09:47:00.266Z,65.50
2022-11-09T09:49:32.154Z,61.60
2022-11-09T09:52:05.301Z,55.90
2022-11-09T09:54:41.151Z,64.50
2022-11-09T09:57:17.118Z,63.20
2022-11-09T09:59:51.001Z,54.30
2022-11-09T10:02:26.342Z,50.10
2022-11-09T10:04:58.962Z,36.10
2022-11-09T10:07:32.077Z,36.80
2022-11-09T10:10:22.151Z,32.80
2022-11-09T10:13:02.270Z,32.50
2022-11-09T10:15:35.357Z,35.30
2022-11-09T10:18:16.837Z,31.10
2022-11-09T10:21:08.853Z,30.30
2022-11-09T10:26:19.620Z,32.80
2022-11-09T10:29:15.176Z,32.00
2022-11-09T10:31:45.640Z,30.10
2022-11-09T10:34:21.025Z,34.60
2022-11-09T10:36:58.246Z,32.80
2022-11-09T10:39:33.640Z,29.60
2022-11-09T10:42:24.083Z,31.20
2022-11-09T10:45:23.414Z,30.30
2022-11-09T10:48:14.302Z,33.60
2022-11-09T10:51:05.060Z,32.00
2022-11-09T10:53:56.008Z,30.70
2022-11-09T10:59:59.419Z,30.10
2022-11-09T11:02:52.318Z,32.30
2022-11-09T11:05:43.508Z,33.30
2022-11-09T11:08:36.574Z,34.20
2022-11-09T11:11:36.094Z,34.60
2022-11-09T11:14:32.158Z,37.10
2022-11-09T11:17:26.721Z,40.20
2022-11-09T11:20:31.474Z,37.70
2022-11-09T11:23:22.916Z,42.70
2022-11-09T11:26:31.893Z,47.90
2022-11-09T11:29:31.167Z,39.90
2022-11-09T11:32:21.690Z,31.60
2022-11-09T11:35:17.261Z,33.00
2022-11-09T11:38:15.599Z,31.70
2022-11-09T11:41:10.941Z,32.30
2022-11-09T11:44:03.734Z,34.00
2022-11-09T11:47:00.268Z,32.90
2022-11-09T11:50:03.834Z,32.70
2022-11-09T11:53:08.401Z,35.80
2022-11-09T11:56:22.030Z,34.90
2022-11-09T11:59:39.111Z,32.70
2022-11-09T12:02:49.918Z,33.20
2022-11-09T12:05:57.849Z,32.90
2022-11-09T12:08:55.754Z,34.80
2022-11-09T12:11:55.298Z,33.80
2022-11-09T12:14:50.676Z,33.90
2022-11-09T12:17:44.894Z,32.60
2022-11-09T12:20:38.459Z,37.80
2022-11-09T12:23:36.615Z,36.20
2022-11-09T12:26:31.649Z,33.50
2022-11-09T12:29:24.300Z,32.30
2022-11-09T12:32:21.955Z,34.20
2022-11-09T12:35:30.806Z,32.20
2022-11-09T12:38:28.693Z,30.10
2022-11-09T12:41:20.252Z,29.10
2022-11-09T12:44:17.059Z,29.80
2022-11-09T12:47:09.639Z,28.30
2022-11-09T12:50:00.044Z,26.30
2022-11-09T12:52:52.401Z,29.20
2022-11-09T12:55:47.733Z,27.10
2022-11-09T12:58:38.279Z,26.60
2022-11-09T13:01:50.028Z,28.20
2022-11-09T13:04:40.417Z,24.10
2022-11-09T13:07:40.720Z,25.70
2022-11-09T13:10:34.782Z,25.90
2022-11-09T13:13:26.861Z,25.70
2022-11-09T13:16:34.837Z,26.40
2022-11-09T13:19:56.241Z,24.70
2022-11-09T13:23:03.320Z,24.00
2022-11-09T13:25:54.547Z,28.30
2022-11-09T13:28:46.959Z,28.80
2022-11-09T13:34:45.044Z,27.00
2022-11-09T13:37:49.616Z,27.10
2022-11-09T13:40:52.094Z,27.60
2022-11-09T13:43:42.514Z,25.20
2022-11-09T13:46:41.263Z,26.10
2022-11-09T13:49:49.819Z,27.00
2022-11-09T13:52:51.809Z,29.50
2022-11-09T13:55:42.498Z,25.60
2022-11-09T13:58:34.999Z,27.10
2022-11-09T14:01:37.935Z,28.30
2022-11-09T14:04:31.419Z,26.20
2022-11-09T14:07:23.792Z,26.20
2022-11-09T14:10:20.546Z,28.10
2022-11-09T14:13:21.529Z,28.30
2022-11-09T14:16:15.377Z,28.90
2022-11-09T14:19:18.986Z,28.30
2022-11-09T14:22:17.798Z,28.70
2022-11-09T14:25:16.732Z,28.20
2022-11-09T14:28:22.044Z,29.00
2022-11-09T14:31:24.010Z,31.00
2022-11-09T14:34:17.945Z,34.60
2022-11-09T14:37:10.696Z,28.60
2022-11-09T14:40:01.173Z,30.10
2022-11-09T14:42:53.847Z,33.30
2022-11-09T14:45:52.250Z,33.10
2022-11-09T14:48:45.923Z,37.00
2022-11-09T14:51:38.678Z,39.40
2022-11-09T14:54:29.205Z,31.50
2022-11-09T14:57:19.593Z,34.50
2022-11-09T15:00:25.502Z,37.50
2022-11-09T15:03:31.890Z,38.70
2022-11-09T15:06:22.094Z,37.20
2022-11-09T15:09:15.972Z,34.00
2022-11-09T15:12:07.449Z,36.60
2022-11-09T15:14:58.988Z,35.60
2022-11-09T15:17:49.303Z,34.50
2022-11-09T15:20:39.828Z,37.30
2022-11-09T15:23:40.771Z,38.20
2022-11-09T15:26:37.533Z,36.70
2022-11-09T15:29:36.526Z,41.10
2022-11-09T15:32:27.041Z,37.10
2022-11-09T15:35:19.743Z,35.80
2022-11-09T15:38:33.342Z,32.10
2022-11-09T15:41:24.012Z,36.50
2022-11-09T15:44:15.379Z,39.70
2022-11-09T15:47:07.587Z,41.40
2022-11-09T15:49:58.475Z,40.60
2022-11-09T15:52:49.354Z,41.00
2022-11-09T15:55:40.072Z,41.90
2022-11-09T15:58:30.825Z,41.50
2022-11-09T16:01:21.162Z,38.10
2022-11-09T16:04:11.601Z,38.40
2022-11-09T16:07:01.856Z,40.90
2022-11-09T16:09:52.291Z,39.70
2022-11-09T16:12:46.242Z,43.20
2022-11-09T16:15:36.987Z,46.80
2022-11-09T16:18:27.600Z,43.90
2022-11-09T16:21:18.637Z,47.00
2022-11-09T16:24:09.424Z,44.40
2022-11-09T16:26:59.901Z,45.90
2022-11-09T16:29:50.178Z,43.60
2022-11-09T16:32:40.308Z,40.90
2022-11-09T16:35:30.258Z,39.00
2022-11-09T16:38:20.606Z,39.40
2022-11-09T16:41:11.027Z,40.80
2022-11-09T16:44:01.291Z,38.20
2022-11-09T16:46:52.336Z,36.30
2022-11-09T16:49:42.728Z,37.90
2022-11-09T16:52:33.154Z,36.40
2022-11-09T16:55:23.561Z,35.30
2022-11-09T16:58:13.449Z,35.50
2022-11-09T17:01:11.551Z,33.70
2022-11-09T17:04:02.331Z,38.70
2022-11-09T17:06:53.105Z,36.20
2022-11-09T17:09:43.204Z,38.40
2022-11-09T17:12:34.103Z,38.90
2022-11-09T17:15:24.554Z,34.90
2022-11-09T17:18:15.032Z,37.80
2022-11-09T17:21:05.281Z,37.50
2022-11-09T17:23:55.423Z,37.20
2022-11-09T17:26:46.351Z,41.30
2022-11-09T17:29:37.564Z,39.70
2022-11-09T17:32:28.444Z,39.00
2022-11-09T17:35:18.951Z,41.50
2022-11-09T17:38:08.977Z,43.30
2022-11-09T17:41:06.175Z,42.20
2022-11-09T17:43:56.723Z,39.80
2022-11-09T17:46:47.981Z,39.70
2022-11-09T17:49:38.298Z,36.60
2022-11-09T17:52:28.492Z,36.80
2022-11-09T17:55:18.587Z,35.70
2022-11-09T17:58:08.731Z,40.20
2022-11-09T18:00:59.377Z,38.00
2022-11-09T18:03:49.398Z,37.70
2022-11-09T18:06:39.929Z,39.50
2022-11-09T18:09:46.007Z,38.70
2022-11-09T18:12:36.023Z,39.70
2022-11-09T18:15:26.168Z,39.30
2022-11-09T18:18:16.199Z,40.30
2022-11-09T18:21:10.646Z,39.70
2022-11-09T18:24:01.081Z,39.40
2022-11-09T18:26:51.569Z,36.70
2022-11-09T18:29:42.493Z,37.40
2022-11-09T18:32:33.796Z,40.70
2022-11-09T18:35:24.339Z,39.20
2022-11-09T18:38:17.497Z,39.90
2022-11-09T18:41:11.095Z,44.30
2022-11-09T18:44:27.257Z,48.40
2022-11-09T18:47:17.428Z,47.70
2022-11-09T18:50:09.879Z,39.90
2022-11-09T18:52:59.950Z,42.80
2022-11-09T18:55:50.048Z,43.80
2022-11-09T18:58:39.966Z,51.30
2022-11-09T19:01:30.414Z,53.80
2022-11-09T19:04:20.600Z,57.80
2022-11-09T19:07:11.044Z,51.00
2022-11-09T19:10:01.377Z,51.90
2022-11-09T19:12:51.789Z,55.30
2022-11-09T19:15:42.828Z,53.70
2022-11-09T19:18:33.262Z,56.90
2022-11-09T19:21:38.483Z,57.70
2022-11-09T19:24:31.208Z,61.20
2022-11-09T19:27:21.240Z,67.20
2022-11-09T19:30:13.007Z,70.00
2022-11-09T19:33:03.839Z,67.20
2022-11-09T19:36:23.270Z,66.10
2022-11-09T19:39:05.625Z,68.00
2022-11-09T19:41:56.267Z,67.10
2022-11-09T19:44:48.914Z,69.20
2022-11-09T19:47:42.779Z,67.10
2022-11-09T19:50:33.602Z,67.90
2022-11-09T19:53:24.099Z,73.10
2022-11-09T19:56:14.663Z,68.40
2022-11-09T19:59:05.001Z,66.50
2022-11-09T20:01:56.341Z,63.70
2022-11-09T20:04:47.778Z,75.90
2022-11-09T20:07:38.024Z,68.20
2022-11-09T20:10:28.316Z,65.30
2022-11-09T20:13:20.721Z,73.50
2022-11-09T20:16:11.778Z,62.60
2022-11-09T20:19:01.951Z,69.20
2022-11-09T20:21:51.863Z,66.50
2022-11-09T20:24:42.421Z,67.40
2022-11-09T20:27:32.698Z,65.80
2022-11-09T20:30:22.961Z,65.50
2022-11-09T20:33:13.044Z,62.00
2022-11-09T20:36:03.505Z,79.40
2022-11-09T20:38:54.903Z,76.70
2022-11-09T20:41:45.151Z,67.50
2022-11-09T20:44:35.400Z,74.00
2022-11-09T20:47:57.163Z,73.40
2022-11-09T20:50:36.741Z,70.10
2022-11-09T20:53:27.391Z,65.80
2022-11-09T20:56:18.452Z,69.30
2022-11-09T20:59:09.097Z,70.20
2022-11-09T21:01:59.717Z,70.10
2022-11-09T21:04:50.165Z,70.70
2022-11-09T21:07:40.523Z,58.10
2022-11-09T21:10:30.991Z,66.90
2022-11-09T21:13:21.076Z,64.20
2022-11-09T21:16:13.114Z,61.70
2022-11-09T21:19:03.630Z,62.10
2022-11-09T21:21:53.883Z,70.50
2022-11-09T21:25:02.165Z,61.40
2022-11-09T21:28:10.960Z,56.10
2022-11-09T21:31:04.086Z,49.50
2022-11-09T21:33:56.929Z,42.10
2022-11-09T21:36:47.436Z,37.50
2022-11-09T21:39:37.623Z,39.80
2022-11-09T21:42:28.192Z,36.00
2022-11-09T21:45:18.832Z,35.40
2022-11-09T21:48:10.054Z,38.70
2022-11-09T21:51:02.137Z,42.10
2022-11-09T21:53:52.297Z,36.90
2022-11-09T21:56:42.770Z,39.90
2022-11-09T21:59:33.460Z,43.40
2022-11-09T22:02:24.084Z,42.30
2022-11-09T22:05:17.630Z,38.80
2022-11-09T22:08:10.651Z,42.30
2022-11-09T22:11:07.755Z,42.40
2022-11-09T22:14:15.406Z,44.70
2022-11-09T22:17:08.827Z,45.40
2022-11-09T22:20:16.630Z,43.30
2022-11-09T22:23:09.200Z,39.50
2022-11-09T22:26:01.609Z,43.80
2022-11-09T22:28:52.405Z,45.70
2022-11-09T22:31:42.445Z,44.40
2022-11-09T22:34:32.596Z,45.70
2022-11-09T22:37:22.448Z,49.40
2022-11-09T22:40:13.905Z,46.90
2022-11-09T22:43:04.193Z,44.60
2022-11-09T22:45:54.433Z,44.90
2022-11-09T22:48:45.180Z,40.20
2022-11-09T22:51:35.856Z,37.40
2022-11-09T22:54:28.108Z,38.40
2022-11-09T22:57:18.613Z,37.70
2022-11-09T23:00:11.820Z,35.10
2022-11-09T23:03:02.009Z,35.70
2022-11-09T23:05:52.232Z,33.70
2022-11-09T23:08:42.747Z,34.70
2022-11-09T23:11:32.595Z,38.20
2022-11-09T23:14:42.616Z,36.90
2022-11-09T23:17:50.506Z,37.90
2022-11-09T23:20:40.631Z,38.10
2022-11-09T23:23:30.675Z,36.60
2022-11-09T23:26:21.202Z,38.60
2022-11-09T23:29:11.149Z,38.60
2022-11-09T23:32:01.550Z,42.80
2022-11-09T23:34:52.013Z,40.40
2022-11-09T23:37:41.970Z,37.60
2022-11-09T23:40:33.203Z,41.30
2022-11-09T23:43:23.483Z,44.50
2022-11-09T23:46:15.033Z,46.00
2022-11-09T23:49:05.475Z,45.60
2022-11-09T23:51:55.581Z,47.60
2022-11-09T23:54:46.428Z,43.30
2022-11-09T23:57:36.718Z,40.50
